createdAt,value
2022-12-18T00:00:24.006Z,71.21
2022-12-18T00:05:28.776Z,71.39
2022-12-18T00:10:30.814Z,71.18
2022-12-18T00:15:35.546Z,71.48
2022-12-18T00:20:39.294Z,71.59
2022-12-18T00:25:41.274Z,71.74
2022-12-18T00:30:43.269Z,71.84
2022-12-18T00:35:45.376Z,71.58
2022-12-18T00:40:47.411Z,71.79
2022-12-18T00:45:49.402Z,71.77
2022-12-18T00:50:52.380Z,71.61
2022-12-18T00:55:54.338Z,71.29
2022-12-18T01:00:56.363Z,71.56
2022-12-18T01:05:58.555Z,71.67
2022-12-18T01:11:00.736Z,71.56
2022-12-18T01:16:02.993Z,71.11
2022-12-18T01:21:09.802Z,71.34
2022-12-18T01:26:15.917Z,71.41
2022-12-18T01:31:30.309Z,71.13
2022-12-18T01:36:38.322Z,71.76
2022-12-18T01:41:59.461Z,71.30
2022-12-18T01:47:01.582Z,71.20
2022-12-18T01:52:03.641Z,70.88
2022-12-18T01:57:05.686Z,71.50
2022-12-18T02:02:08.793Z,71.24
2022-12-18T02:07:17.039Z,71.31
2022-12-18T02:12:31.907Z,71.38
2022-12-18T02:17:43.085Z,71.04
2022-12-18T02:23:05.962Z,71.12
2022-12-18T02:28:13.896Z,71.13
2022-12-18T02:33:16.921Z,71.29
2022-12-18T02:38:19.371Z,71.18
2022-12-18T02:43:24.239Z,71.08
2022-12-18T02:48:33.803Z,71.07
2022-12-18T02:53:46.685Z,70.90
2022-12-18T02:59:01.295Z,71.02
2022-12-18T03:04:37.787Z,70.56
2022-12-18T03:09:45.146Z,70.78
2022-12-18T03:14:51.521Z,71.37
2022-12-18T03:19:57.104Z,70.74
2022-12-18T03:25:01.736Z,70.72
2022-12-18T03:30:09.818Z,70.54
2022-12-18T03:35:18.764Z,71.08
2022-12-18T03:40:32.650Z,70.87
2022-12-18T03:45:39.484Z,71.29
2022-12-18T03:50:59.033Z,71.12
2022-12-18T03:56:03.228Z,70.93
2022-12-18T04:01:13.345Z,71.36
2022-12-18T04:06:18.056Z,70.79
2022-12-18T04:11:20.873Z,70.93
2022-12-18T04:16:23.664Z,70.99
2022-12-18T04:21:29.245Z,71.52
2022-12-18T04:26:31.350Z,71.45
2022-12-18T04:31:52.115Z,71.07
2022-12-18T04:36:55.123Z,70.96
2022-12-18T04:42:01.432Z,71.51
2022-12-18T04:47:04.237Z,71.31
2022-12-18T04:52:06.207Z,70.89
2022-12-18T04:57:09.340Z,71.50
2022-12-18T05:02:11.756Z,71.46
2022-12-18T05:07:13.865Z,71.48
2022-12-18T05:12:15.980Z,71.14
2022-12-18T05:17:18.151Z,71.72
2022-12-18T05:22:20.196Z,71.02
2022-12-18T05:27:22.555Z,71.46
2022-12-18T05:32:24.631Z,71.73
2022-12-18T05:37:26.671Z,71.48
2022-12-18T05:42:28.713Z,71.59
2022-12-18T05:47:30.832Z,71.47
2022-12-18T05:52:32.918Z,71.49
2022-12-18T05:57:34.935Z,70.93
2022-12-18T06:02:37.149Z,71.71
2022-12-18T06:07:39.322Z,71.52
2022-12-18T06:12:41.310Z,71.06
2022-12-18T06:17:44.126Z,71.54
2022-12-18T06:22:46.736Z,71.53
2022-12-18T06:27:49.423Z,71.50
2022-12-18T06:32:56.339Z,71.92
2022-12-18T06:37:58.997Z,71.45
2022-12-18T06:43:01.062Z,71.46
2022-12-18T06:48:03.414Z,71.11
2022-12-18T06:53:06.458Z,71.18
2022-12-18T06:58:09.785Z,71.45
2022-12-18T07:03:13.528Z,71.59
2022-12-18T07:08:15.629Z,71.15
2022-12-18T07:13:18.371Z,71.61
2022-12-18T07:18:20.614Z,71.02
2022-12-18T07:23:22.600Z,71.32
2022-12-18T07:28:24.844Z,71.35
2022-12-18T07:33:26.901Z,71.65
2022-12-18T07:38:29.362Z,71.66
2022-12-18T07:43:32.190Z,71.10
2022-12-18T07:48:34.888Z,70.92
2022-12-18T07:53:37.922Z,71.35
2022-12-18T07:58:40.218Z,71.43
2022-12-18T08:03:42.568Z,71.84
2022-12-18T08:08:44.835Z,71.20
2022-12-18T08:13:46.845Z,71.21
2022-12-18T08:18:49.583Z,70.69
2022-12-18T08:23:55.835Z,70.68
2022-12-18T08:28:59.507Z,71.20
2022-12-18T08:34:01.536Z,70.88
2022-12-18T08:39:03.895Z,71.53
2022-12-18T08:44:24.615Z,71.47
2022-12-18T08:49:26.689Z,71.60
2022-12-18T08:54:28.982Z,70.98
2022-12-18T08:59:31.091Z,71.36
2022-12-18T09:04:33.063Z,70.99
2022-12-18T09:09:35.061Z,71.32
2022-12-18T09:14:37.360Z,71.47
2022-12-18T09:19:39.371Z,71.85
2022-12-18T09:24:41.435Z,72.03
2022-12-18T09:29:43.431Z,71.97
2022-12-18T09:34:45.346Z,71.32
2022-12-18T09:39:47.346Z,71.51
2022-12-18T09:44:54.226Z,71.68
2022-12-18T09:50:21.972Z,72.09
2022-12-18T09:55:37.483Z,71.53
2022-12-18T10:00:40.033Z,71.20
2022-12-18T10:06:12.051Z,71.40
2022-12-18T10:11:41.848Z,71.29
2022-12-18T10:17:22.893Z,71.18
2022-12-18T10:22:43.607Z,71.43
2022-12-18T10:27:46.104Z,71.35
2022-12-18T10:32:48.238Z,71.86
2022-12-18T10:38:21.581Z,71.48
2022-12-18T10:43:35.262Z,71.54
2022-12-18T10:48:41.525Z,71.16
2022-12-18T10:53:44.114Z,71.47
2022-12-18T10:58:58.111Z,71.13
2022-12-18T11:04:03.601Z,71.00
2022-12-18T11:09:19.735Z,71.42
2022-12-18T11:14:30.191Z,70.99
2022-12-18T11:19:36.609Z,71.55
2022-12-18T11:24:38.636Z,71.48
2022-12-18T11:29:46.346Z,71.37
2022-12-18T11:34:59.151Z,71.28
2022-12-18T11:40:13.108Z,70.93
2022-12-18T11:45:15.099Z,71.30
2022-12-18T11:50:26.591Z,71.30
2022-12-18T11:55:46.894Z,71.43
2022-12-18T12:01:06.537Z,71.68
2022-12-18T12:06:26.053Z,71.57
2022-12-18T12:11:44.653Z,71.32
2022-12-18T12:16:49.395Z,71.30
2022-12-18T12:22:17.456Z,71.35
2022-12-18T12:27:56.784Z,71.96
2022-12-18T12:33:13.551Z,71.97
2022-12-18T12:38:27.534Z,71.66
2022-12-18T12:43:35.181Z,71.68
2022-12-18T12:48:48.745Z,71.32
2022-12-18T12:53:52.900Z,71.54
2022-12-18T12:59:19.719Z,71.18
2022-12-18T13:04:41.944Z,71.47
2022-12-18T13:10:20.574Z,71.54
2022-12-18T13:15:31.427Z,70.85
2022-12-18T13:20:46.630Z,71.11
2022-12-18T13:25:52.893Z,71.25
2022-12-18T13:30:57.747Z,71.47
2022-12-18T13:36:23.728Z,71.42
2022-12-18T13:41:29.137Z,71.11
2022-12-18T13:46:44.847Z,71.38
2022-12-18T13:51:52.805Z,71.70
2022-12-18T13:56:54.975Z,71.54
2022-12-18T14:02:06.642Z,71.70
2022-12-18T14:07:13.949Z,71.32
2022-12-18T14:12:38.121Z,71.31
2022-12-18T14:17:40.572Z,71.79
2022-12-18T14:22:48.201Z,71.77
2022-12-18T14:28:02.908Z,72.01
2022-12-18T14:33:15.957Z,71.04
2022-12-18T14:38:23.390Z,71.09
2022-12-18T14:43:27.941Z,70.92
2022-12-18T14:48:40.554Z,71.29
2022-12-18T14:53:52.095Z,71.39
2022-12-18T14:58:56.477Z,71.40
2022-12-18T15:03:59.977Z,71.51
2022-12-18T15:09:21.537Z,71.13
2022-12-18T15:14:31.046Z,71.25
2022-12-18T15:19:41.767Z,71.01
2022-12-18T15:24:43.827Z,71.03
2022-12-18T15:30:01.236Z,71.43
2022-12-18T15:35:25.988Z,70.54
2022-12-18T15:40:28.016Z,70.46
2022-12-18T15:45:30.104Z,70.93
2022-12-18T15:50:32.147Z,71.07
2022-12-18T15:55:56.534Z,70.89
2022-12-18T16:01:02.951Z,70.88
2022-12-18T16:06:05.035Z,70.93
2022-12-18T16:11:07.177Z,70.76
2022-12-18T16:16:09.758Z,70.80
2022-12-18T16:21:12.151Z,70.76
2022-12-18T16:26:14.239Z,69.93
2022-12-18T16:31:16.229Z,70.67
2022-12-18T16:36:18.225Z,70.59
2022-12-18T16:41:32.463Z,70.35
2022-12-18T16:46:34.599Z,69.94
2022-12-18T16:51:36.764Z,69.63
2022-12-18T16:56:39.434Z,70.08
2022-12-18T17:01:42.009Z,69.71
2022-12-18T17:06:48.482Z,69.91
2022-12-18T17:11:50.637Z,69.36
2022-12-18T17:17:19.713Z,69.17
2022-12-18T17:22:15.963Z,69.33
2022-12-18T17:27:17.999Z,69.63
2022-12-18T17:32:20.233Z,69.58
2022-12-18T17:37:22.346Z,70.44
2022-12-18T17:42:24.327Z,69.20
2022-12-18T17:47:26.331Z,69.54
2022-12-18T17:52:28.527Z,69.15
2022-12-18T17:57:30.590Z,68.93
2022-12-18T18:02:32.846Z,68.81
2022-12-18T18:07:35.864Z,69.02
2022-12-18T18:12:56.659Z,68.36
2022-12-18T18:18:00.658Z,69.35
2022-12-18T18:23:02.639Z,69.15
2022-12-18T18:28:04.961Z,69.74
2022-12-18T18:33:11.864Z,69.86
2022-12-18T18:38:14.225Z,68.59
2022-12-18T18:43:16.207Z,68.37
2022-12-18T18:48:18.198Z,68.27
2022-12-18T18:53:20.217Z,68.36
2022-12-18T18:58:22.283Z,68.32
2022-12-18T19:03:25.424Z,68.19
2022-12-18T19:08:30.603Z,68.05
2022-12-18T19:13:34.218Z,68.78
2022-12-18T19:18:38.433Z,68.38
2022-12-18T19:23:41.343Z,69.04
2022-12-18T19:28:44.684Z,68.64
2022-12-18T19:33:48.264Z,68.55
2022-12-18T19:38:51.141Z,68.36
2022-12-18T19:43:54.699Z,68.25
2022-12-18T19:49:00.265Z,67.85
2022-12-18T19:54:03.139Z,68.21
2022-12-18T19:59:05.481Z,68.14
2022-12-18T20:04:07.838Z,67.65
2022-12-18T20:09:11.042Z,67.81
2022-12-18T20:14:14.672Z,66.98
2022-12-18T20:19:21.463Z,67.79
2022-12-18T20:24:23.671Z,68.19
2022-12-18T20:29:26.315Z,68.23
2022-12-18T20:34:28.422Z,68.24
2022-12-18T20:39:30.484Z,67.90
2022-12-18T20:44:33.614Z,67.86
2022-12-18T20:49:35.643Z,67.76
2022-12-18T20:54:39.572Z,67.99
2022-12-18T20:59:46.316Z,68.29
2022-12-18T21:04:50.581Z,68.08
2022-12-18T21:09:52.662Z,68.45
2022-12-18T21:14:54.872Z,67.85
2022-12-18T21:19:57.012Z,67.90
2022-12-18T21:24:59.076Z,67.71
2022-12-18T21:30:01.191Z,67.49
2022-12-18T21:35:04.058Z,68.31
2022-12-18T21:40:06.740Z,67.18
2022-12-18T21:45:09.123Z,67.94
2022-12-18T21:50:11.134Z,67.52
2022-12-18T21:55:13.175Z,67.21
2022-12-18T22:00:19.232Z,67.15
2022-12-18T22:05:21.757Z,67.39
2022-12-18T22:10:23.904Z,67.58
2022-12-18T22:15:25.928Z,67.64
2022-12-18T22:20:29.926Z,67.52
2022-12-18T22:25:32.174Z,68.05
2022-12-18T22:30:36.390Z,67.21
2022-12-18T22:35:38.384Z,67.37
2022-12-18T22:40:40.685Z,67.44
2022-12-18T22:45:47.305Z,67.15
2022-12-18T22:50:51.124Z,68.21
2022-12-18T22:56:02.050Z,67.82
2022-12-18T23:01:05.080Z,67.42
2022-12-18T23:06:09.330Z,67.60
2022-12-18T23:11:12.516Z,68.48
2022-12-18T23:16:17.080Z,68.27
2022-12-18T23:21:20.714Z,67.81
2022-12-18T23:26:25.250Z,68.45
2022-12-18T23:31:30.286Z,68.34
2022-12-18T23:36:35.877Z,67.60
2022-12-18T23:41:48.064Z,67.52
2022-12-18T23:46:50.182Z,67.60
2022-12-18T23:51:54.975Z,67.51
2022-12-18T23:56:56.981Z,68.49
